Time;durP1;ratioP1;P1;durP2;ratioP2;P2;SDS_P1;SDS_P2;PMS_P1;PMS_P2;Temp;Humidity;BMP_temperature;BMP_pressure;BME280_temperature;BME280_humidity;BME280_pressure;Samples;Min_cycle;Max_cycle;Signal;HPM_P1;HPM_P2
2021/01/14 00:00:16;;;;;;;23.15;3.20;;;;;;;;;;5029550;28;20091;-41
2021/01/14 00:02:44;;;;;;;14.27;2.45;;;;;;;;;;5030171;28;20079;-42
2021/01/14 00:05:12;;;;;;;27.40;3.22;;;;;;;;;;5012587;28;20619;-41
2021/01/14 00:07:39;;;;;;;16.95;2.45;;;;;;;;;;5030324;28;20115;-41
2021/01/14 00:10:07;;;;;;;29.00;3.08;;;;;;;;;;5029925;28;20036;-41
2021/01/14 00:12:34;;;;;;;16.88;2.50;;;;;;;;;;5030185;28;20064;-44
2021/01/14 00:15:02;;;;;;;24.92;3.08;;;;;;;;;;5029830;28;20489;-42
2021/01/14 00:17:29;;;;;;;25.27;3.92;;;;;;;;;;5028605;28;20053;-42
2021/01/14 00:19:57;;;;;;;14.00;2.83;;;;;;;;;;5029265;28;20032;-43
2021/01/14 00:22:24;;;;;;;19.73;2.80;;;;;;;;;;5029893;28;20477;-41
2021/01/14 00:24:51;;;;;;;13.93;2.80;;;;;;;;;;5029739;28;20099;-45
2021/01/14 00:27:18;;;;;;;26.65;3.42;;;;;;;;;;5030411;28;20072;-44
2021/01/14 00:29:46;;;;;;;23.60;3.35;;;;;;;;;;5030213;28;20029;-43
2021/01/14 00:32:13;;;;;;;11.30;2.30;;;;;;;;;;5030042;28;20100;-42
2021/01/14 00:34:40;;;;;;;15.10;2.85;;;;;;;;;;5030609;28;20068;-44
2021/01/14 00:39:56;;;;;;;27.63;2.83;;;;;;;;;;5030302;28;20632;-43
2021/01/14 00:42:24;;;;;;;24.95;2.92;;;;;;;;;;5030245;28;20025;-43
2021/01/14 00:44:51;;;;;;;14.45;2.60;;;;;;;;;;5030505;28;20030;-42
2021/01/14 00:47:19;;;;;;;11.90;2.80;;;;;;;;;;5030458;28;20083;-43
2021/01/14 00:49:46;;;;;;;22.10;2.30;;;;;;;;;;5030202;28;20087;-44
2021/01/14 00:52:13;;;;;;;14.38;2.28;;;;;;;;;;5028998;28;20025;-44
2021/01/14 00:54:40;;;;;;;24.58;2.95;;;;;;;;;;5030355;28;20136;-44
2021/01/14 00:57:08;;;;;;;21.83;3.17;;;;;;;;;;5031232;28;20022;-45
2021/01/14 00:59:35;;;;;;;12.95;2.40;;;;;;;;;;5030808;28;20097;-45
2021/01/14 01:02:02;;;;;;;21.30;1.95;;;;;;;;;;5030492;28;20113;-44
2021/01/14 01:04:29;;;;;;;18.23;2.20;;;;;;;;;;5033543;28;20398;-44
2021/01/14 01:06:57;;;;;;;13.77;2.25;;;;;;;;;;5034328;28;20022;-46
2021/01/14 01:09:24;;;;;;;10.30;1.70;;;;;;;;;;5034146;28;20029;-44
2021/01/14 01:11:51;;;;;;;13.48;1.92;;;;;;;;;;5034678;28;20048;-45
2021/01/14 01:14:18;;;;;;;17.15;2.13;;;;;;;;;;5034453;28;20350;-45
2021/01/14 01:16:45;;;;;;;13.45;1.95;;;;;;;;;;5034390;28;20013;-46
2021/01/14 01:19:12;;;;;;;10.93;2.28;;;;;;;;;;5034311;28;20021;-45
2021/01/14 01:21:42;;;;;;;16.80;2.47;;;;;;;;;;5033946;28;20028;-44
2021/01/14 01:24:10;;;;;;;17.02;2.15;;;;;;;;;;5033491;28;20103;-45
2021/01/14 01:26:37;;;;;;;11.88;2.20;;;;;;;;;;5033614;28;20040;-44
2021/01/14 01:29:04;;;;;;;11.15;2.25;;;;;;;;;;5033193;28;20025;-46
2021/01/14 01:31:31;;;;;;;13.45;2.53;;;;;;;;;;5033533;28;20484;-44
2021/01/14 01:33:59;;;;;;;11.55;2.40;;;;;;;;;;5032250;28;20017;-45
2021/01/14 01:36:26;;;;;;;10.88;2.30;;;;;;;;;;5020624;28;20018;-45
2021/01/14 01:38:52;;;;;;;11.98;2.42;;;;;;;;;;5019794;28;20092;-50
2021/01/14 01:41:19;;;;;;;8.02;2.08;;;;;;;;;;5017858;28;20493;-44
2021/01/14 01:43:46;;;;;;;19.50;3.03;;;;;;;;;;5030750;28;20025;-44
2021/01/14 01:46:23;;;;;;;14.00;1.95;;;;;;;;;;5022051;28;20021;-45
2021/01/14 01:48:50;;;;;;;8.57;2.10;;;;;;;;;;5033404;28;20028;-44
2021/01/14 01:51:17;;;;;;;13.90;2.10;;;;;;;;;;5033519;28;20017;-46
2021/01/14 01:53:45;;;;;;;10.25;2.10;;;;;;;;;;5033098;28;20041;-44
2021/01/14 01:56:12;;;;;;;11.80;1.40;;;;;;;;;;5033273;28;20025;-43
2021/01/14 01:58:41;;;;;;;12.70;1.80;;;;;;;;;;5027967;28;20606;-43
2021/01/14 02:01:09;;;;;;;12.45;2.40;;;;;;;;;;5013602;28;20489;-43
2021/01/14 02:03:36;;;;;;;18.83;2.30;;;;;;;;;;5021776;28;20051;-42
2021/01/14 02:06:04;;;;;;;7.70;1.50;;;;;;;;;;5033058;28;20373;-42
2021/01/14 02:08:47;;;;;;;14.20;1.95;;;;;;;;;;5033006;28;20120;-42
2021/01/14 02:11:41;;;;;;;9.68;2.08;;;;;;;;;;5031676;28;20667;-42
2021/01/14 02:14:15;;;;;;;8.40;1.95;;;;;;;;;;5030827;28;20064;-46
2021/01/14 02:16:50;;;;;;;24.92;2.47;;;;;;;;;;5028133;28;20072;-42
2021/01/14 02:19:21;;;;;;;8.32;1.50;;;;;;;;;;5030140;28;20487;-43
2021/01/14 02:21:52;;;;;;;20.15;1.88;;;;;;;;;;5029537;28;20017;-44
2021/01/14 02:24:29;;;;;;;9.63;1.83;;;;;;;;;;5029136;28;20034;-43
2021/01/14 02:26:58;;;;;;;7.13;1.60;;;;;;;;;;5030909;28;20112;-47
2021/01/14 02:29:26;;;;;;;10.55;1.70;;;;;;;;;;5032216;28;20485;-46
2021/01/14 02:31:54;;;;;;;9.07;1.42;;;;;;;;;;5032926;28;20057;-42
2021/01/14 02:34:21;;;;;;;10.07;1.58;;;;;;;;;;5033030;28;20041;-42
2021/01/14 02:36:49;;;;;;;5.20;1.10;;;;;;;;;;5033141;28;20049;-42
2021/01/14 02:39:17;;;;;;;11.07;1.05;;;;;;;;;;5033100;28;20067;-45
2021/01/14 02:41:44;;;;;;;14.15;1.92;;;;;;;;;;5033426;28;20013;-42
2021/01/14 02:44:11;;;;;;;19.70;3.20;;;;;;;;;;5033257;28;20068;-43
2021/01/14 02:46:40;;;;;;;16.70;1.85;;;;;;;;;;5032598;28;20619;-50
2021/01/14 02:49:08;;;;;;;14.57;1.58;;;;;;;;;;5033169;28;20021;-42
2021/01/14 02:51:57;;;;;;;7.97;1.20;;;;;;;;;;5032338;28;20481;-42
2021/01/14 02:54:25;;;;;;;12.38;1.80;;;;;;;;;;5032167;28;20467;-42
2021/01/14 02:56:53;;;;;;;12.10;1.58;;;;;;;;;;5032535;28;20021;-43
2021/01/14 02:59:20;;;;;;;14.18;1.73;;;;;;;;;;5032807;28;20033;-45
2021/01/14 03:01:49;;;;;;;7.65;1.20;;;;;;;;;;5032714;28;20075;-42
2021/01/14 03:04:16;;;;;;;6.45;1.55;;;;;;;;;;5032650;28;20041;-42
2021/01/14 03:06:43;;;;;;;14.63;1.45;;;;;;;;;;5032668;28;20504;-47
2021/01/14 03:09:10;;;;;;;13.05;2.67;;;;;;;;;;5032051;28;20504;-42
2021/01/14 03:11:37;;;;;;;18.25;2.42;;;;;;;;;;5032893;28;20053;-44
2021/01/14 03:14:04;;;;;;;4.53;0.98;;;;;;;;;;5032824;28;20017;-44
2021/01/14 03:16:37;;;;;;;5.22;1.48;;;;;;;;;;5032787;28;20021;-42
2021/01/14 03:19:05;;;;;;;8.05;1.00;;;;;;;;;;5032530;28;20021;-44
2021/01/14 03:21:32;;;;;;;10.90;1.95;;;;;;;;;;5032767;28;20052;-45
2021/01/14 03:24:00;;;;;;;11.93;1.63;;;;;;;;;;5032660;28;20037;-45
2021/01/14 03:26:27;;;;;;;8.27;1.00;;;;;;;;;;5031725;28;20365;-42
2021/01/14 03:28:55;;;;;;;12.82;1.95;;;;;;;;;;5014354;28;20017;-41
2021/01/14 03:31:23;;;;;;;16.40;1.58;;;;;;;;;;5032383;28;20029;-42
2021/01/14 03:33:50;;;;;;;6.05;1.40;;;;;;;;;;5032202;28;20393;-44
2021/01/14 03:36:19;;;;;;;15.25;1.70;;;;;;;;;;5031189;28;20109;-42
2021/01/14 03:38:46;;;;;;;15.15;1.30;;;;;;;;;;5032116;28;20021;-41
2021/01/14 03:41:18;;;;;;;16.42;1.80;;;;;;;;;;5032128;28;20108;-46
2021/01/14 03:43:45;;;;;;;9.63;1.67;;;;;;;;;;5030086;28;20038;-42
2021/01/14 03:46:15;;;;;;;9.82;1.33;;;;;;;;;;5012486;28;20056;-41
2021/01/14 03:48:46;;;;;;;7.80;1.10;;;;;;;;;;5029058;28;20013;-42
2021/01/14 03:51:23;;;;;;;13.20;1.58;;;;;;;;;;5027325;28;20028;-43
2021/01/14 03:53:51;;;;;;;14.23;1.52;;;;;;;;;;5031272;28;20109;-45
2021/01/14 03:56:18;;;;;;;19.45;1.65;;;;;;;;;;5029149;28;20053;-44
2021/01/14 03:58:46;;;;;;;5.95;1.38;;;;;;;;;;5031547;28;20043;-44
2021/01/14 04:01:13;;;;;;;10.48;1.38;;;;;;;;;;5031219;28;20040;-43
2021/01/14 04:03:43;;;;;;;12.20;1.48;;;;;;;;;;5031357;28;20025;-41
2021/01/14 04:06:11;;;;;;;13.50;1.45;;;;;;;;;;5013930;28;20018;-41
2021/01/14 04:08:38;;;;;;;4.60;1.35;;;;;;;;;;5027752;28;20032;-42
2021/01/14 04:11:06;;;;;;;10.15;2.05;;;;;;;;;;5031270;28;20417;-41
2021/01/14 04:13:33;;;;;;;5.63;0.95;;;;;;;;;;5031375;28;20022;-41
2021/01/14 04:16:00;;;;;;;3.67;1.38;;;;;;;;;;5030740;28;20029;-42
2021/01/14 04:18:27;;;;;;;7.47;1.20;;;;;;;;;;5031873;28;20060;-41
2021/01/14 04:20:54;;;;;;;9.88;1.45;;;;;;;;;;5031752;28;20021;-40
2021/01/14 04:23:21;;;;;;;12.50;1.98;;;;;;;;;;5031847;28;20021;-42
2021/01/14 04:25:48;;;;;;;8.73;2.08;;;;;;;;;;5031929;28;20393;-42
2021/01/14 04:28:16;;;;;;;7.68;1.20;;;;;;;;;;5031926;28;20499;-41
2021/01/14 04:30:43;;;;;;;6.18;0.88;;;;;;;;;;5031682;28;20112;-43
2021/01/14 04:33:13;;;;;;;7.88;1.25;;;;;;;;;;5031863;28;20500;-41
2021/01/14 04:35:47;;;;;;;6.63;1.50;;;;;;;;;;5031710;28;20026;-42
2021/01/14 04:38:14;;;;;;;4.43;1.05;;;;;;;;;;5033032;28;20374;-40
2021/01/14 04:40:41;;;;;;;12.98;1.10;;;;;;;;;;5035623;28;20524;-41
2021/01/14 04:43:10;;;;;;;19.27;2.20;;;;;;;;;;5035591;28;20033;-41
2021/01/14 04:45:37;;;;;;;11.90;2.47;;;;;;;;;;5035902;28;20036;-41
2021/01/14 04:48:04;;;;;;;10.23;1.30;;;;;;;;;;5035337;28;20048;-42
2021/01/14 04:50:31;;;;;;;7.97;0.98;;;;;;;;;;5035526;28;20029;-41
2021/01/14 04:53:00;;;;;;;4.95;1.15;;;;;;;;;;5035677;28;20079;-41
2021/01/14 04:55:29;;;;;;;6.70;1.30;;;;;;;;;;5034947;28;20119;-41
2021/01/14 04:57:57;;;;;;;6.20;1.35;;;;;;;;;;5035385;28;20025;-41
2021/01/14 05:00:26;;;;;;;5.57;1.25;;;;;;;;;;5017396;28;20358;-41
2021/01/14 05:02:53;;;;;;;11.60;2.10;;;;;;;;;;5035324;28;20030;-42
2021/01/14 05:05:23;;;;;;;8.55;1.70;;;;;;;;;;5035203;28;20397;-42
2021/01/14 05:07:55;;;;;;;11.57;1.55;;;;;;;;;;5035362;28;20489;-40
2021/01/14 05:10:23;;;;;;;7.55;1.35;;;;;;;;;;5017280;28;20031;-41
2021/01/14 05:12:51;;;;;;;5.32;1.08;;;;;;;;;;5034927;28;20028;-41
2021/01/14 05:15:18;;;;;;;7.05;1.20;;;;;;;;;;5034909;28;20029;-41
2021/01/14 05:17:45;;;;;;;10.18;1.52;;;;;;;;;;5017058;28;20072;-42
2021/01/14 05:20:12;;;;;;;11.18;1.45;;;;;;;;;;5033122;28;20486;-42
2021/01/14 05:22:39;;;;;;;10.60;1.42;;;;;;;;;;5034059;28;20071;-41
2021/01/14 05:25:08;;;;;;;3.97;1.08;;;;;;;;;;5033814;28;20435;-42
2021/01/14 05:27:36;;;;;;;2.83;1.05;;;;;;;;;;5017274;28;20462;-44
2021/01/14 05:30:10;;;;;;;5.47;0.90;;;;;;;;;;5034783;28;20034;-43
2021/01/14 05:32:38;;;;;;;6.40;0.80;;;;;;;;;;5034898;28;20057;-44
2021/01/14 05:35:06;;;;;;;3.47;1.40;;;;;;;;;;5035234;28;20025;-43
2021/01/14 05:37:42;;;;;;;5.38;0.82;;;;;;;;;;5034861;28;20018;-43
2021/01/14 05:40:13;;;;;;;10.52;1.65;;;;;;;;;;5034751;28;20052;-43
2021/01/14 05:42:41;;;;;;;5.20;0.82;;;;;;;;;;5034670;28;20529;-43
2021/01/14 05:45:22;;;;;;;3.88;1.40;;;;;;;;;;5034783;28;20056;-44
2021/01/14 05:47:49;;;;;;;9.48;1.42;;;;;;;;;;5034731;28;20112;-43
2021/01/14 05:50:29;;;;;;;5.88;1.42;;;;;;;;;;5033292;28;20036;-44
2021/01/14 05:52:57;;;;;;;6.22;1.30;;;;;;;;;;5034537;28;20017;-43
2021/01/14 05:55:28;;;;;;;8.55;1.30;;;;;;;;;;5034589;28;20513;-43
2021/01/14 05:58:02;;;;;;;6.80;1.15;;;;;;;;;;5034792;28;20021;-43
2021/01/14 06:00:35;;;;;;;5.55;1.00;;;;;;;;;;5034511;28;20017;-41
2021/01/14 06:03:40;;;;;;;4.40;0.88;;;;;;;;;;5034411;28;20022;-41
2021/01/14 06:06:17;;;;;;;5.28;1.45;;;;;;;;;;4954233;29;20117;-42
2021/01/14 06:08:45;;;;;;;7.20;1.10;;;;;;;;;;4953908;29;20499;-43
2021/01/14 06:11:19;;;;;;;4.32;1.08;;;;;;;;;;4998986;28;20038;-41
2021/01/14 06:13:46;;;;;;;4.60;1.10;;;;;;;;;;5034443;28;20025;-42
2021/01/14 06:16:13;;;;;;;5.13;1.00;;;;;;;;;;5034267;28;20025;-43
2021/01/14 06:18:40;;;;;;;6.55;1.02;;;;;;;;;;5034101;28;20473;-42
2021/01/14 06:21:07;;;;;;;4.85;1.00;;;;;;;;;;5034082;28;20036;-43
2021/01/14 06:23:47;;;;;;;6.88;1.17;;;;;;;;;;5034088;28;20120;-43
2021/01/14 06:26:34;;;;;;;6.10;1.25;;;;;;;;;;5033986;28;20021;-43
2021/01/14 06:29:01;;;;;;;8.02;1.08;;;;;;;;;;5033949;28;20428;-42
2021/01/14 06:31:28;;;;;;;8.73;1.30;;;;;;;;;;5033903;28;20017;-43
2021/01/14 06:33:56;;;;;;;8.23;1.23;;;;;;;;;;5033945;28;20423;-42
2021/01/14 06:36:32;;;;;;;3.80;1.30;;;;;;;;;;5033832;28;20067;-42
2021/01/14 06:39:03;;;;;;;11.32;1.60;;;;;;;;;;5033636;28;20036;-42
2021/01/14 06:41:37;;;;;;;8.55;1.65;;;;;;;;;;5033751;28;20025;-43
2021/01/14 06:44:06;;;;;;;6.63;1.30;;;;;;;;;;5033411;28;20036;-42
2021/01/14 06:46:34;;;;;;;6.40;1.48;;;;;;;;;;5033716;28;20028;-42
2021/01/14 06:49:01;;;;;;;5.50;1.45;;;;;;;;;;5033263;28;20445;-42
2021/01/14 06:51:35;;;;;;;6.40;1.50;;;;;;;;;;5033454;28;20017;-42
2021/01/14 06:54:11;;;;;;;8.18;1.30;;;;;;;;;;5033453;28;20075;-42
2021/01/14 06:56:57;;;;;;;4.68;1.27;;;;;;;;;;5033759;28;20025;-42
2021/01/14 06:59:25;;;;;;;9.35;1.60;;;;;;;;;;5033280;28;20029;-43
2021/01/14 07:02:00;;;;;;;5.75;1.60;;;;;;;;;;5033160;28;20100;-42
2021/01/14 07:04:32;;;;;;;5.43;0.80;;;;;;;;;;5033106;28;20092;-42
2021/01/14 07:07:07;;;;;;;7.53;1.25;;;;;;;;;;5033144;28;20477;-42
2021/01/14 07:09:38;;;;;;;8.48;1.20;;;;;;;;;;5033316;28;20044;-43
2021/01/14 07:12:07;;;;;;;6.03;1.17;;;;;;;;;;5032892;28;20030;-42
2021/01/14 07:14:44;;;;;;;12.55;1.60;;;;;;;;;;5033136;28;20025;-43
2021/01/14 07:17:11;;;;;;;7.13;0.90;;;;;;;;;;5033128;28;20034;-43
2021/01/14 07:19:38;;;;;;;4.72;1.48;;;;;;;;;;5033121;28;20411;-43
2021/01/14 07:22:05;;;;;;;7.75;1.30;;;;;;;;;;5032684;28;20029;-43
2021/01/14 07:24:34;;;;;;;13.90;1.17;;;;;;;;;;5032722;28;20034;-43
2021/01/14 07:27:02;;;;;;;8.75;1.42;;;;;;;;;;5032998;28;20493;-42
2021/01/14 07:29:30;;;;;;;8.80;1.35;;;;;;;;;;5032885;28;20474;-43
2021/01/14 07:31:58;;;;;;;8.88;1.27;;;;;;;;;;5032769;28;20022;-43
2021/01/14 07:34:44;;;;;;;7.72;1.33;;;;;;;;;;5032522;28;20023;-43
2021/01/14 07:37:11;;;;;;;8.75;1.38;;;;;;;;;;5032368;28;20037;-42
2021/01/14 07:39:48;;;;;;;9.93;1.50;;;;;;;;;;5032406;28;20018;-43
2021/01/14 07:42:22;;;;;;;4.75;1.48;;;;;;;;;;5031358;28;20038;-42
2021/01/14 07:44:50;;;;;;;10.00;1.15;;;;;;;;;;5032564;28;20073;-43
2021/01/14 07:47:23;;;;;;;8.13;1.48;;;;;;;;;;5032642;28;20021;-43
2021/01/14 07:49:50;;;;;;;6.13;1.02;;;;;;;;;;5032658;28;20026;-42
2021/01/14 07:52:28;;;;;;;4.72;1.40;;;;;;;;;;5032397;28;20021;-44
2021/01/14 07:54:59;;;;;;;11.10;1.40;;;;;;;;;;5032221;28;20128;-42
2021/01/14 07:57:29;;;;;;;7.80;1.45;;;;;;;;;;5032409;28;20025;-43
2021/01/14 08:00:10;;;;;;;4.32;1.20;;;;;;;;;;5014793;28;20412;-42
2021/01/14 08:02:55;;;;;;;4.38;1.15;;;;;;;;;;5032155;28;20168;-42
2021/01/14 08:05:41;;;;;;;5.93;1.27;;;;;;;;;;5032389;28;20528;-41
2021/01/14 08:08:29;;;;;;;7.43;1.23;;;;;;;;;;5032536;28;20032;-41
2021/01/14 08:11:13;;;;;;;6.55;1.45;;;;;;;;;;5032211;28;20090;-43
2021/01/14 08:13:58;;;;;;;6.22;1.67;;;;;;;;;;5034192;28;20401;-43
2021/01/14 08:16:32;;;;;;;8.32;1.33;;;;;;;;;;5036393;28;20029;-42
2021/01/14 08:19:14;;;;;;;6.50;1.30;;;;;;;;;;5018206;28;20029;-43
2021/01/14 08:21:42;;;;;;;5.10;1.27;;;;;;;;;;5035994;28;20109;-42
2021/01/14 08:24:10;;;;;;;7.88;1.10;;;;;;;;;;5035812;28;20037;-43
2021/01/14 08:26:55;;;;;;;7.28;1.27;;;;;;;;;;5036115;28;20057;-43
2021/01/14 08:29:51;;;;;;;6.45;1.05;;;;;;;;;;5036264;28;20045;-43
2021/01/14 08:32:29;;;;;;;7.03;1.90;;;;;;;;;;5020889;28;20078;-41
2021/01/14 08:34:56;;;;;;;8.55;1.35;;;;;;;;;;5035886;28;20111;-43
2021/01/14 08:37:31;;;;;;;14.55;1.90;;;;;;;;;;5034761;28;20485;-42
2021/01/14 08:40:09;;;;;;;5.93;1.30;;;;;;;;;;5035729;28;20489;-43
2021/01/14 08:42:37;;;;;;;8.00;1.42;;;;;;;;;;5035847;28;20525;-42
2021/01/14 08:45:09;;;;;;;7.63;1.27;;;;;;;;;;5035843;28;20034;-42
2021/01/14 08:47:54;;;;;;;9.20;1.10;;;;;;;;;;5035852;28;20100;-41
2021/01/14 08:50:35;;;;;;;10.27;1.30;;;;;;;;;;5016817;28;20106;-42
2021/01/14 08:53:03;;;;;;;6.00;0.90;;;;;;;;;;5034366;28;20060;-43
2021/01/14 08:55:30;;;;;;;3.70;1.05;;;;;;;;;;5035407;28;20127;-43
2021/01/14 08:57:58;;;;;;;7.50;2.00;;;;;;;;;;5035540;28;20029;-43
2021/01/14 09:00:28;;;;;;;14.90;1.30;;;;;;;;;;5035209;28;20033;-42
2021/01/14 09:02:55;;;;;;;6.35;1.10;;;;;;;;;;5035449;28;20119;-43
2021/01/14 09:05:22;;;;;;;6.40;1.20;;;;;;;;;;5035335;28;20037;-43
2021/01/14 09:08:12;;;;;;;13.15;1.65;;;;;;;;;;5035224;28;20028;-41
2021/01/14 09:10:40;;;;;;;8.35;1.45;;;;;;;;;;5035293;28;20104;-42
2021/01/14 09:13:11;;;;;;;4.90;1.20;;;;;;;;;;5034328;28;20049;-44
2021/01/14 09:15:38;;;;;;;9.35;1.15;;;;;;;;;;5035394;28;20033;-43
2021/01/14 09:18:05;;;;;;;11.27;1.30;;;;;;;;;;5017393;28;20504;-42
2021/01/14 09:20:32;;;;;;;6.60;1.20;;;;;;;;;;5035229;28;20057;-42
2021/01/14 09:23:20;;;;;;;7.90;1.48;;;;;;;;;;5035145;28;20018;-42
2021/01/14 09:25:48;;;;;;;5.95;1.20;;;;;;;;;;5035077;28;20022;-43
2021/01/14 09:28:15;;;;;;;9.90;1.20;;;;;;;;;;5035068;28;20017;-43
2021/01/14 09:30:42;;;;;;;4.47;1.00;;;;;;;;;;5034971;28;20037;-43
2021/01/14 09:33:10;;;;;;;7.97;1.42;;;;;;;;;;5035074;28;20025;-42
2021/01/14 09:35:37;;;;;;;7.10;1.00;;;;;;;;;;5034946;28;20075;-42
2021/01/14 09:38:04;;;;;;;4.32;1.15;;;;;;;;;;5035080;28;20021;-42
2021/01/14 09:40:31;;;;;;;11.95;1.73;;;;;;;;;;5034578;28;20020;-43
2021/01/14 09:42:59;;;;;;;14.00;1.55;;;;;;;;;;5034718;28;20123;-43
2021/01/14 09:45:27;;;;;;;8.40;1.23;;;;;;;;;;5034836;28;20115;-41
2021/01/14 09:47:54;;;;;;;11.88;1.67;;;;;;;;;;5034694;28;20029;-42
2021/01/14 09:50:25;;;;;;;9.93;1.50;;;;;;;;;;5034656;28;20017;-42
2021/01/14 09:52:52;;;;;;;13.07;2.80;;;;;;;;;;5033784;28;20484;-41
2021/01/14 09:55:19;;;;;;;13.88;2.03;;;;;;;;;;5034140;28;20049;-43
2021/01/14 09:57:51;;;;;;;10.15;2.47;;;;;;;;;;5033728;28;20030;-43
2021/01/14 10:00:18;;;;;;;;;;;;;;;;;;5034699;28;20032;-42
2021/01/14 10:02:48;;;;;;;17.45;2.05;;;;;;;;;;5034655;28;20285;-43
2021/01/14 10:05:16;;;;;;;24.02;2.53;;;;;;;;;;5034254;28;20163;-42
2021/01/14 10:07:46;;;;;;;21.45;2.38;;;;;;;;;;5034337;28;21050;-42
2021/01/14 10:10:14;;;;;;;21.65;3.00;;;;;;;;;;5034737;28;20112;-42
2021/01/14 10:12:41;;;;;;;14.18;2.08;;;;;;;;;;5032965;28;20021;-42
2021/01/14 10:15:12;;;;;;;16.38;2.40;;;;;;;;;;5034245;28;20021;-42
2021/01/14 10:17:40;;;;;;;12.95;1.95;;;;;;;;;;5034374;28;20022;-42
2021/01/14 10:20:14;;;;;;;19.75;3.70;;;;;;;;;;5034081;28;20033;-43
2021/01/14 10:22:47;;;;;;;15.55;1.80;;;;;;;;;;5033983;28;20078;-44
2021/01/14 10:25:15;;;;;;;14.95;2.45;;;;;;;;;;5033946;28;20087;-42
2021/01/14 10:27:42;;;;;;;17.85;2.35;;;;;;;;;;5034142;28;20021;-43
2021/01/14 10:30:22;;;;;;;24.50;3.22;;;;;;;;;;5033893;28;20025;-42
2021/01/14 10:32:49;;;;;;;16.67;2.20;;;;;;;;;;5033879;28;20021;-42
2021/01/14 10:35:26;;;;;;;15.15;2.17;;;;;;;;;;5033643;28;20030;-43
2021/01/14 10:38:06;;;;;;;14.00;1.88;;;;;;;;;;5033265;28;20450;-42
2021/01/14 10:40:34;;;;;;;19.17;2.30;;;;;;;;;;5033983;28;20022;-42
2021/01/14 10:43:01;;;;;;;23.23;2.25;;;;;;;;;;5033847;28;20082;-42
2021/01/14 10:45:29;;;;;;;14.10;2.28;;;;;;;;;;5032965;28;20033;-43
2021/01/14 10:48:16;;;;;;;18.73;2.20;;;;;;;;;;5033580;28;20021;-43
2021/01/14 10:50:49;;;;;;;13.57;2.08;;;;;;;;;;5033366;28;20424;-43
2021/01/14 10:53:30;;;;;;;15.80;2.80;;;;;;;;;;5033451;28;20026;-41
2021/01/14 10:56:01;;;;;;;18.55;2.80;;;;;;;;;;5033630;28;20392;-43
2021/01/14 10:58:29;;;;;;;34.97;2.53;;;;;;;;;;5033185;28;20097;-41
2021/01/14 11:00:56;;;;;;;14.30;2.05;;;;;;;;;;5032875;28;20048;-43
2021/01/14 11:03:24;;;;;;;21.15;2.80;;;;;;;;;;5032025;28;20032;-43
2021/01/14 11:05:51;;;;;;;31.60;3.15;;;;;;;;;;5033106;28;20034;-42
2021/01/14 11:08:18;;;;;;;23.30;2.80;;;;;;;;;;5033299;28;20075;-42
2021/01/14 11:10:45;;;;;;;41.75;3.40;;;;;;;;;;5033191;28;20029;-43
2021/01/14 11:13:13;;;;;;;31.33;3.05;;;;;;;;;;5033253;28;20543;-43
2021/01/14 11:15:41;;;;;;;15.90;2.25;;;;;;;;;;5032970;28;20052;-43
2021/01/14 11:18:08;;;;;;;23.45;3.20;;;;;;;;;;5033300;28;20432;-44
2021/01/14 11:20:35;;;;;;;21.05;2.30;;;;;;;;;;5033273;28;20017;-43
2021/01/14 11:23:02;;;;;;;30.45;2.55;;;;;;;;;;5032788;28;20029;-42
2021/01/14 11:25:30;;;;;;;24.08;2.67;;;;;;;;;;5032898;28;20496;-43
2021/01/14 11:27:58;;;;;;;28.65;3.17;;;;;;;;;;5031725;28;20032;-44
2021/01/14 11:30:25;;;;;;;24.50;3.28;;;;;;;;;;5032795;28;20536;-42
2021/01/14 11:32:52;;;;;;;24.85;3.38;;;;;;;;;;5032807;28;20029;-43
2021/01/14 11:35:19;;;;;;;29.50;3.08;;;;;;;;;;5032910;28;20025;-42
2021/01/14 11:37:47;;;;;;;26.05;3.22;;;;;;;;;;5032820;28;20029;-43
2021/01/14 11:40:14;;;;;;;21.98;2.80;;;;;;;;;;5032502;28;20033;-42
2021/01/14 11:42:41;;;;;;;16.13;2.25;;;;;;;;;;5032880;28;20025;-42
2021/01/14 11:45:09;;;;;;;26.23;2.65;;;;;;;;;;5032308;28;20125;-42
2021/01/14 11:47:36;;;;;;;22.50;2.83;;;;;;;;;;5031908;28;20028;-43
2021/01/14 11:50:03;;;;;;;19.88;2.20;;;;;;;;;;5032546;28;20037;-41
2021/01/14 11:52:30;;;;;;;20.98;2.60;;;;;;;;;;5031327;28;20056;-41
2021/01/14 11:54:57;;;;;;;21.90;2.95;;;;;;;;;;5032272;28;20100;-41
2021/01/14 11:57:33;;;;;;;22.00;2.35;;;;;;;;;;5032693;28;20071;-42
2021/01/14 12:00:00;;;;;;;21.58;3.17;;;;;;;;;;5032566;28;20029;-42
2021/01/14 12:02:27;;;;;;;12.68;2.53;;;;;;;;;;5031098;28;20163;-42
2021/01/14 12:04:54;;;;;;;32.60;4.22;;;;;;;;;;5032238;28;20428;-42
2021/01/14 12:07:21;;;;;;;18.30;2.55;;;;;;;;;;5032543;28;20104;-42
2021/01/14 12:09:48;;;;;;;19.35;2.90;;;;;;;;;;5032376;28;20092;-43
2021/01/14 12:12:15;;;;;;;30.65;3.42;;;;;;;;;;5032344;28;20018;-42
2021/01/14 12:14:42;;;;;;;28.50;4.15;;;;;;;;;;5032285;28;20033;-41
2021/01/14 12:17:09;;;;;;;46.28;4.57;;;;;;;;;;5032384;28;20040;-42
2021/01/14 12:19:36;;;;;;;41.65;4.38;;;;;;;;;;5032329;28;20039;-42
2021/01/14 12:22:07;;;;;;;39.15;4.85;;;;;;;;;;5031070;28;20048;-42
2021/01/14 12:24:34;;;;;;;32.45;3.28;;;;;;;;;;5032124;28;20033;-41
2021/01/14 12:27:01;;;;;;;41.05;3.65;;;;;;;;;;5032315;28;20135;-42
2021/01/14 12:29:28;;;;;;;13.38;2.78;;;;;;;;;;5032291;28;20022;-41
2021/01/14 12:31:55;;;;;;;23.80;3.00;;;;;;;;;;5047509;28;20474;-42
2021/01/14 12:34:23;;;;;;;9.90;2.03;;;;;;;;;;5032152;28;20040;-42
2021/01/14 12:36:50;;;;;;;34.75;3.97;;;;;;;;;;5032180;28;20022;-41
2021/01/14 12:39:17;;;;;;;26.50;3.55;;;;;;;;;;5031892;28;20034;-42
2021/01/14 12:41:44;;;;;;;34.22;4.13;;;;;;;;;;5031829;28;20022;-42
2021/01/14 12:44:11;;;;;;;28.67;3.20;;;;;;;;;;5032093;28;20485;-42
2021/01/14 12:46:39;;;;;;;37.33;4.35;;;;;;;;;;5032063;28;20055;-42
2021/01/14 12:49:07;;;;;;;44.33;4.00;;;;;;;;;;5031871;28;20488;-42
2021/01/14 12:51:34;;;;;;;23.58;3.85;;;;;;;;;;5032203;28;20030;-42
2021/01/14 12:54:01;;;;;;;19.58;2.50;;;;;;;;;;5031799;28;20033;-42
2021/01/14 12:56:28;;;;;;;17.02;2.83;;;;;;;;;;5031863;28;20018;-42
2021/01/14 12:58:55;;;;;;;20.27;3.03;;;;;;;;;;5032296;28;20028;-41
2021/01/14 13:01:29;;;;;;;34.47;3.58;;;;;;;;;;5035591;28;20045;-42
2021/01/14 13:03:57;;;;;;;49.92;4.22;;;;;;;;;;5035419;28;20025;-41
2021/01/14 13:06:24;;;;;;;33.63;3.47;;;;;;;;;;5035542;28;20105;-42
2021/01/14 13:08:51;;;;;;;43.50;4.82;;;;;;;;;;5035459;28;20112;-41
2021/01/14 13:11:18;;;;;;;49.17;5.05;;;;;;;;;;5035078;28;20477;-42
2021/01/14 13:13:46;;;;;;;43.72;4.78;;;;;;;;;;5035449;28;20049;-41
2021/01/14 13:16:13;;;;;;;30.70;3.05;;;;;;;;;;5035575;28;20479;-41
2021/01/14 13:18:40;;;;;;;47.90;5.30;;;;;;;;;;5035000;28;20025;-42
2021/01/14 13:21:07;;;;;;;37.95;4.68;;;;;;;;;;5035095;28;20025;-43
2021/01/14 13:23:34;;;;;;;28.67;4.03;;;;;;;;;;5034677;28;20056;-44
2021/01/14 13:26:01;;;;;;;54.20;5.47;;;;;;;;;;5034384;28;20068;-41
2021/01/14 13:28:28;;;;;;;45.83;4.18;;;;;;;;;;5034249;28;20041;-42
2021/01/14 13:30:55;;;;;;;30.48;3.25;;;;;;;;;;5028702;28;20030;-42
2021/01/14 13:33:23;;;;;;;32.88;3.88;;;;;;;;;;5032804;28;20021;-41
2021/01/14 13:35:57;;;;;;;26.70;3.30;;;;;;;;;;5032666;28;20022;-41
2021/01/14 13:38:24;;;;;;;45.25;3.75;;;;;;;;;;5034061;28;20129;-41
2021/01/14 13:40:51;;;;;;;26.98;3.97;;;;;;;;;;5034350;28;20092;-41
2021/01/14 13:43:18;;;;;;;43.20;4.45;;;;;;;;;;5033067;28;20079;-41
2021/01/14 13:45:45;;;;;;;33.53;4.35;;;;;;;;;;5033202;28;20443;-41
2021/01/14 13:48:12;;;;;;;28.52;3.33;;;;;;;;;;5034229;28;20026;-41
2021/01/14 13:50:39;;;;;;;30.88;3.50;;;;;;;;;;5033217;28;20033;-41
2021/01/14 13:53:06;;;;;;;32.22;4.00;;;;;;;;;;5033398;28;20032;-41
2021/01/14 13:55:33;;;;;;;23.45;3.35;;;;;;;;;;5033821;28;20052;-41
2021/01/14 13:58:00;;;;;;;44.55;4.25;;;;;;;;;;5033421;28;20037;-41
2021/01/14 14:00:27;;;;;;;53.45;5.10;;;;;;;;;;5026752;28;20029;-41
2021/01/14 14:02:54;;;;;;;35.92;4.85;;;;;;;;;;5021260;28;20034;-41
2021/01/14 14:05:21;;;;;;;40.17;4.80;;;;;;;;;;5027320;28;20084;-42
2021/01/14 14:07:48;;;;;;;41.55;4.47;;;;;;;;;;5027087;28;20026;-41
2021/01/14 14:10:16;;;;;;;32.40;3.63;;;;;;;;;;5024587;28;20075;-42
2021/01/14 14:12:43;;;;;;;37.95;3.78;;;;;;;;;;5024705;28;20021;-43
2021/01/14 14:15:10;;;;;;;23.25;3.15;;;;;;;;;;5025512;28;20026;-45
2021/01/14 14:17:37;;;;;;;23.95;3.40;;;;;;;;;;5028499;28;20469;-44
2021/01/14 14:20:04;;;;;;;33.88;3.72;;;;;;;;;;5032089;28;20018;-43
2021/01/14 14:22:33;;;;;;;36.60;3.92;;;;;;;;;;5025658;28;20025;-44
2021/01/14 14:25:00;;;;;;;23.65;4.20;;;;;;;;;;5024328;28;20437;-42
2021/01/14 14:27:27;;;;;;;38.40;5.63;;;;;;;;;;5022730;28;20037;-42
2021/01/14 14:29:54;;;;;;;31.20;4.10;;;;;;;;;;5022106;28;20022;-42
2021/01/14 14:32:21;;;;;;;40.60;5.32;;;;;;;;;;5019674;28;20520;-44
2021/01/14 14:34:48;;;;;;;55.97;5.43;;;;;;;;;;5020721;28;20053;-43
2021/01/14 14:37:15;;;;;;;58.08;5.40;;;;;;;;;;5018619;28;20080;-43
2021/01/14 14:39:42;;;;;;;44.60;5.85;;;;;;;;;;5018386;28;20437;-48
2021/01/14 14:42:09;;;;;;;70.35;8.05;;;;;;;;;;5012199;28;20025;-44
2021/01/14 14:44:36;;;;;;;61.15;7.15;;;;;;;;;;5013361;28;20034;-45
2021/01/14 14:47:06;;;;;;;55.83;6.47;;;;;;;;;;5021421;28;20025;-45
2021/01/14 14:49:33;;;;;;;43.05;7.18;;;;;;;;;;5031744;28;20025;-46
2021/01/14 14:52:00;;;;;;;60.50;6.57;;;;;;;;;;5019719;28;20036;-46